SAVC/CRD METAR and TAF weather

Enter ICAO airport designator
Station Type Date Time Source
SAVC METAR 2021/03/08 02:00 UTC NOAA

SAVC 080200Z 23006KT CAVOK 13/01 Q1014


Station Type Date Time Source
SAVC Decoded METAR 2021/03/08 02:00 UTC NOAA

Comodoro Rivadavia Aerodrome, Argentina (SAVC) 45-47S 067-30W 46M
Mar 07, 2021 - 09:00 PM EST / 2021.03.08 0200 UTC
Wind: from the SW (230 degrees) at 7 MPH (6 KT):0
Visibility: greater than 7 mile(s):0
Temperature: 55 F (13 C)
Dew Point: 33 F (1 C)
Relative Humidity: 43%
Pressure (altimeter): 29.94 in. Hg (1014 hPa)
ob: SAVC 080200Z 23006KT CAVOK 13/01 Q1014
cycle: 2

Station Type Date Time Source
SAVC TAF 2021/03/08 00:00 UTC NOAA

TAF SAVC 072300Z 0800/0824 24020G30KT CAVOK TX23/0819Z TN10/0810Z
BECMG 0803/0805 27012KT
BECMG 0814/0816 05012KT

Example: see airport list